Time;durP1;ratioP1;P1;durP2;ratioP2;P2;SDS_P1;SDS_P2;PMS_P1;PMS_P2;Temp;Humidity;BMP_temperature;BMP_pressure;BME280_temperature;BME280_humidity;BME280_pressure;Samples;Min_cycle;Max_cycle;Signal;HPM_P1;HPM_P2
2023/02/10 10:03:04;;;;;;;25.40;9.60;;;;;;;-4.08;67.22;101286.73;109355;1271;23917;31
2023/02/10 10:06:21;;;;;;;29.40;9.90;;;;;;;-3.95;66.26;101286.13;109179;1276;22495;-81
2023/02/10 10:09:18;;;;;;;39.00;16.60;;;;;;;-3.82;65.36;101283.98;108867;1274;22782;-81
2023/02/10 10:11:53;;;;;;;34.30;13.00;;;;;;;-3.73;66.08;101275.38;108115;1277;22771;-79
2023/02/10 10:14:33;;;;;;;33.80;13.00;;;;;;;-3.63;66.41;101268.65;108148;1280;22583;-80
2023/02/10 10:17:12;;;;;;;33.70;12.80;;;;;;;-3.51;65.81;101266.04;108742;1277;24263;-82
2023/02/10 10:19:54;;;;;;;35.40;13.40;;;;;;;-3.42;64.79;101254.09;109227;1283;22548;-81
2023/02/10 10:23:13;;;;;;;29.20;12.30;;;;;;;-3.32;64.44;101250.27;108782;1283;25237;-81
2023/02/10 10:26:13;;;;;;;39.70;12.30;;;;;;;-3.22;63.97;101248.58;108676;1280;22883;-80
2023/02/10 10:29:34;;;;;;;29.80;11.60;;;;;;;-3.13;63.60;101241.88;108855;1276;22879;-80
2023/02/10 10:32:29;;;;;;;38.90;14.30;;;;;;;-3.05;62.34;101234.95;108251;1276;24187;-80
2023/02/10 10:35:06;;;;;;;27.00;11.40;;;;;;;-2.97;64.08;101228.81;107825;1275;22631;-79
2023/02/10 10:37:42;;;;;;;30.60;12.60;;;;;;;-2.86;64.52;101230.36;107825;1276;24351;-80
2023/02/10 10:40:19;;;;;;;21.20;10.00;;;;;;;-2.73;65.09;101224.84;107852;1277;25368;-79
2023/02/10 10:42:58;;;;;;;26.90;11.70;;;;;;;-2.65;62.70;101223.83;107652;1280;24261;-79
2023/02/10 10:45:33;;;;;;;32.80;11.70;;;;;;;-2.56;64.62;101220.14;107546;1277;22586;-79
2023/02/10 10:48:18;;;;;;;30.20;11.90;;;;;;;-2.44;64.97;101220.86;107612;1279;25282;-79
2023/02/10 10:50:55;;;;;;;28.70;11.50;;;;;;;-2.31;65.47;101213.85;107895;1280;23864;-80
2023/02/10 10:53:40;;;;;;;30.10;12.00;;;;;;;-2.21;64.93;101207.00;107477;1276;22532;-79
2023/02/10 10:56:43;;;;;;;36.60;12.00;;;;;;;-2.07;63.42;101201.02;107609;1283;22877;-80
2023/02/10 10:59:28;;;;;;;28.20;11.40;;;;;;;-1.90;62.57;101197.43;107793;1283;22567;-80
2023/02/10 11:02:12;;;;;;;36.80;12.60;;;;;;;-1.76;61.74;101195.20;108068;1277;22553;-80
2023/02/10 11:05:02;;;;;;;27.30;11.70;;;;;;;-1.65;60.89;101189.88;109327;1283;22932;-80
2023/02/10 11:07:33;;;;;;;29.00;11.30;;;;;;;-1.53;61.50;101189.52;108210;1280;25406;-80
2023/02/10 11:10:26;;;;;;;22.50;10.40;;;;;;;-1.39;63.87;101183.38;108787;1280;25673;-80
2023/02/10 11:13:20;;;;;;;29.10;12.20;;;;;;;-1.23;63.56;101181.06;107689;1276;22566;-79
2023/02/10 11:15:49;;;;;;;23.60;11.90;;;;;;;-1.06;63.62;101179.60;107708;1282;22611;-79
2023/02/10 11:18:21;;;;;;;32.70;13.50;;;;;;;-0.97;62.69;101172.58;107901;1283;22795;-78
2023/02/10 11:20:59;;;;;;;45.80;16.10;;;;;;;-0.84;63.19;101173.80;107697;1273;22538;-79
2023/02/10 11:23:33;;;;;;;37.90;13.40;;;;;;;-0.67;62.37;101177.29;107391;1277;23714;-80
2023/02/10 11:26:24;;;;;;;35.40;14.10;;;;;;;-0.47;61.03;101179.36;107828;1276;22573;-81
2023/02/10 11:29:10;;;;;;;29.20;13.40;;;;;;;-0.30;62.21;101171.05;108381;1277;24655;-81
2023/02/10 11:31:50;;;;;;;37.50;13.70;;;;;;;-0.14;60.78;101170.30;107648;1278;22618;-80
2023/02/10 11:34:30;;;;;;;32.90;12.40;;;;;;;0.02;61.47;101166.54;107966;1283;22567;-82
2023/02/10 11:37:09;;;;;;;30.60;13.40;;;;;;;0.20;62.56;101167.92;108455;1281;22692;-84
2023/02/10 11:39:49;;;;;;;29.50;13.50;;;;;;;0.38;61.52;101162.33;107697;1283;24792;-80
2023/02/10 11:42:25;;;;;;;29.70;13.00;;;;;;;0.52;60.76;101158.08;107332;1283;24192;-79
2023/02/10 11:45:24;;;;;;;28.10;12.40;;;;;;;0.59;56.66;101149.88;107491;1277;23098;-81
2023/02/10 11:48:21;;;;;;;115.00;40.10;;;;;;;0.73;58.34;101151.23;108943;1280;22875;-84
2023/02/10 11:51:30;;;;;;;35.10;12.40;;;;;;;0.83;57.83;101140.63;108603;1280;22624;-81
2023/02/10 11:54:05;;;;;;;33.10;13.50;;;;;;;0.96;56.46;101137.46;108414;1281;22576;-80
2023/02/10 12:00:57;;;;;;;34.90;13.90;;;;;;;1.25;56.68;101135.38;108268;1279;23343;-81
2023/02/10 12:03:49;;;;;;;47.10;14.70;;;;;;;1.58;54.25;101133.91;107870;1283;22588;-81
2023/02/10 12:07:06;;;;;;;28.20;12.20;;;;;;;1.95;55.36;101126.48;107511;1283;22553;-82
2023/02/10 12:09:48;;;;;;;29.30;13.90;;;;;;;2.32;53.71;101124.21;107130;1283;22549;-80
2023/02/10 12:12:42;;;;;;;36.40;14.30;;;;;;;2.60;54.29;101125.67;107584;1277;22673;-80
2023/02/10 12:15:48;;;;;;;;;;;;;;;2.87;53.42;101128.45;108831;1283;22581;-88
2023/02/10 12:18:47;;;;;;;31.00;14.40;;;;;;;3.12;50.52;101132.68;109814;1278;23898;-81
2023/02/10 12:21:56;;;;;;;39.10;16.90;;;;;;;3.35;53.68;101123.05;109418;1275;22550;-89
2023/02/10 12:24:54;;;;;;;46.90;20.50;;;;;;;3.46;51.70;101128.42;108895;1283;23297;-80
2023/02/10 12:27:38;;;;;;;34.90;15.70;;;;;;;3.69;51.84;101127.02;108682;1278;22390;-85
2023/02/10 12:30:58;;;;;;;35.80;16.20;;;;;;;3.89;48.24;101130.98;109588;1282;22111;-84
2023/02/10 12:33:54;;;;;;;32.50;15.50;;;;;;;4.12;48.79;101129.20;108782;1282;22580;-81
2023/02/10 12:36:56;;;;;;;36.60;16.30;;;;;;;4.25;47.74;101127.91;109015;1283;22533;-82
2023/02/10 12:40:11;;;;;;;43.40;19.60;;;;;;;4.47;48.48;101124.17;108968;1278;22477;-81
2023/02/10 12:43:33;;;;;;;37.00;16.00;;;;;;;4.58;50.80;101119.53;109281;1283;22597;-85
2023/02/10 12:46:45;;;;;;;41.80;19.60;;;;;;;4.58;46.86;101115.06;108713;1277;22998;-81
2023/02/10 12:50:04;;;;;;;40.10;16.70;;;;;;;4.71;44.80;101109.27;108685;1282;22607;-84
2023/02/10 12:52:56;;;;;;;38.80;17.90;;;;;;;4.94;46.67;101104.14;108704;1276;23730;-82
2023/02/10 12:55:55;;;;;;;36.40;16.50;;;;;;;5.20;46.28;101108.85;108499;1282;22920;-83
2023/02/10 12:58:40;;;;;;;35.20;16.30;;;;;;;5.36;52.06;101104.16;108641;1276;22569;-86
2023/02/10 13:01:39;;;;;;;41.80;17.80;;;;;;;5.49;47.66;101106.06;108533;1279;25274;-81
2023/02/10 13:04:56;;;;;;;37.10;18.20;;;;;;;5.57;44.91;101111.09;109147;1277;22537;-82
2023/02/10 13:07:57;;;;;;;36.50;16.30;;;;;;;5.87;43.13;101108.29;108552;1276;22588;-86
2023/02/10 13:10:46;;;;;;;34.50;16.00;;;;;;;6.13;48.25;101103.13;109641;1282;22557;-82
2023/02/10 13:13:34;;;;;;;37.20;16.40;;;;;;;6.09;43.24;101109.05;109478;1280;22835;-83
2023/02/10 13:20:01;;;;;;;32.60;15.20;;;;;;;6.65;41.43;101111.77;109705;1270;22377;-82
2023/02/10 13:23:35;;;;;;;43.50;16.70;;;;;;;6.91;39.11;101119.78;108896;1292;22805;-82
2023/02/10 13:26:55;;;;;;;32.00;14.80;;;;;;;7.09;41.29;101118.28;107767;1291;22286;-82
2023/02/10 13:29:30;;;;;;;28.30;13.60;;;;;;;7.11;37.64;101117.63;108144;1293;22489;-79
2023/02/10 13:32:58;;;;;;;31.60;15.20;;;;;;;7.35;37.92;101118.14;107498;1295;23888;-80
2023/02/10 13:35:33;;;;;;;33.50;16.20;;;;;;;7.65;37.06;101117.69;106981;1298;22515;-80
2023/02/10 13:38:25;;;;;;;32.20;16.30;;;;;;;7.86;36.96;101118.95;106782;1301;23006;-80
2023/02/10 13:44:00;;;;;;;32.40;15.40;;;;;;;8.17;42.03;101110.49;107799;1295;24226;-80
2023/02/10 13:46:40;;;;;;;31.80;15.20;;;;;;;8.11;40.28;101107.48;108104;1295;22620;-82
2023/02/10 13:49:24;;;;;;;32.00;14.90;;;;;;;8.08;39.00;101110.02;108121;1295;21966;-82
2023/02/10 13:52:13;;;;;;;28.50;14.60;;;;;;;8.07;37.04;101112.77;108204;1291;22920;-81
2023/02/10 13:55:32;;;;;;;53.50;20.90;;;;;;;7.98;37.04;101115.54;107689;1288;22573;-81
2023/02/10 13:59:14;;;;;;;;;;;;;;;;;;;;;
2023/02/10 14:02:55;;;;;;;79.10;40.60;;;;;;;7.72;37.75;101108.50;109397;1267;22260;-82
2023/02/10 14:10:48;;;;;;;31.90;15.50;;;;;;;7.31;35.90;101104.26;109133;1264;22792;31
2023/02/10 14:18:24;;;;;;;28.80;14.60;;;;;;;6.58;36.84;101110.42;109471;1270;22159;-81
2023/02/10 14:21:58;;;;;;;28.60;13.60;;;;;;;6.17;37.49;101111.48;109008;1273;22714;-80
2023/02/10 14:25:27;;;;;;;31.60;13.40;;;;;;;5.64;39.58;101106.46;109200;1270;22373;31
2023/02/10 14:28:32;;;;;;;37.50;14.60;;;;;;;5.17;39.24;101107.23;109012;1296;22324;-83
2023/02/10 14:31:32;;;;;;;30.80;13.40;;;;;;;4.89;39.18;101111.20;108575;1298;25163;-79
2023/02/10 14:34:32;;;;;;;41.90;17.80;;;;;;;4.63;40.36;101109.04;108426;1296;22593;-82
2023/02/10 14:37:35;;;;;;;35.50;16.10;;;;;;;4.42;41.86;101108.36;108729;1296;22347;-83
2023/02/10 14:40:16;;;;;;;34.60;15.70;;;;;;;4.15;41.92;101107.67;108672;1263;22363;31
2023/02/10 14:43:23;;;;;;;35.10;15.50;;;;;;;4.01;42.75;101102.06;109087;1276;22252;-87
2023/02/10 14:46:08;;;;;;;32.90;14.50;;;;;;;3.78;42.94;101100.42;106583;1289;23855;-79
2023/02/10 14:48:48;;;;;;;36.60;15.70;;;;;;;3.58;43.60;101099.72;106155;1287;23057;-78
2023/02/10 14:51:23;;;;;;;33.60;14.60;;;;;;;3.37;44.34;101098.80;106417;1286;22576;-78
2023/02/10 14:53:52;;;;;;;29.60;14.70;;;;;;;3.19;44.93;101098.30;106199;1289;22894;-81
2023/02/10 14:56:57;;;;;;;36.10;15.50;;;;;;;3.03;45.49;101101.14;105848;1289;828075;-79
2023/02/10 14:59:41;;;;;;;34.70;14.20;;;;;;;2.83;46.12;101101.77;106768;1288;22779;-78
2023/02/10 15:02:36;;;;;;;33.30;13.60;;;;;;;2.63;46.68;101104.91;106551;1292;22645;-79
2023/02/10 15:05:19;;;;;;;32.30;14.00;;;;;;;2.40;47.12;101109.50;106879;1292;25230;-79
2023/02/10 15:07:57;;;;;;;34.70;14.10;;;;;;;2.22;47.44;101106.34;106724;1294;22753;-80
2023/02/10 15:10:49;;;;;;;32.10;13.90;;;;;;;2.02;48.20;101108.28;106871;1289;25319;-79
2023/02/10 15:13:36;;;;;;;30.00;12.90;;;;;;;1.87;48.94;101111.92;107462;1289;24262;-80
2023/02/10 15:16:13;;;;;;;42.50;15.20;;;;;;;1.74;48.49;101119.23;107396;1289;22556;-79
2023/02/10 15:18:48;;;;;;;34.50;14.10;;;;;;;1.58;49.07;101122.83;107710;1289;22595;-80
2023/02/10 15:21:38;;;;;;;32.40;14.30;;;;;;;1.44;49.56;101118.98;107401;1290;22556;-80
2023/02/10 15:24:30;;;;;;;38.80;14.10;;;;;;;1.29;49.22;101121.38;107163;1293;22678;-79
2023/02/10 15:27:27;;;;;;;48.10;15.70;;;;;;;1.13;49.91;101124.07;107086;1289;24252;-80
2023/02/10 15:30:06;;;;;;;51.50;19.80;;;;;;;1.00;50.90;101126.54;107007;1289;24380;-79
2023/02/10 15:32:46;;;;;;;50.80;20.40;;;;;;;0.87;51.56;101124.91;107093;1289;23558;-79
2023/02/10 15:35:19;;;;;;;50.80;18.10;;;;;;;0.73;51.81;101123.44;106846;1295;22573;-80
2023/02/10 15:37:56;;;;;;;53.20;20.50;;;;;;;0.62;52.24;101121.69;106995;1295;22818;-80
2023/02/10 15:40:28;;;;;;;52.10;20.30;;;;;;;0.49;52.47;101122.45;106799;1295;22547;-78
2023/02/10 15:43:21;;;;;;;46.00;16.70;;;;;;;0.35;52.31;101130.99;108199;1292;22657;-78
2023/02/10 15:45:50;;;;;;;38.00;15.00;;;;;;;0.18;51.45;101144.84;107071;1294;22654;-79
2023/02/10 15:48:23;;;;;;;48.30;17.00;;;;;;;0.04;52.88;101147.33;106992;1294;24240;-78
2023/02/10 15:51:26;;;;;;;45.60;17.90;;;;;;;-0.11;52.35;101152.05;106613;1287;22543;-78
2023/02/10 15:53:56;;;;;;;51.10;20.00;;;;;;;-0.26;53.77;101150.64;106316;1295;24173;-80
2023/02/10 15:56:34;;;;;;;74.00;25.30;;;;;;;-0.37;54.03;101150.39;106185;1289;22555;-78
2023/02/10 15:59:13;;;;;;;71.10;25.10;;;;;;;-0.49;54.31;101153.00;106173;1289;22738;-76
2023/02/10 16:01:42;;;;;;;81.00;27.10;;;;;;;-0.61;54.14;101160.71;106164;1296;25397;-77
2023/02/10 16:04:11;;;;;;;62.80;26.60;;;;;;;-0.72;54.91;101159.44;106098;1296;22551;-79
2023/02/10 16:06:42;;;;;;;73.90;28.50;;;;;;;-0.83;54.92;101158.35;106252;1295;22606;-78
2023/02/10 16:09:12;;;;;;;87.10;29.20;;;;;;;-0.94;54.82;101160.16;106072;1288;23033;-78
2023/02/10 16:11:41;;;;;;;108.80;37.60;;;;;;;-1.06;55.29;101164.75;106409;1285;24206;-78
2023/02/10 16:14:14;;;;;;;81.20;29.40;;;;;;;-1.17;55.34;101167.73;106281;1289;24055;-78
2023/02/10 16:16:54;;;;;;;78.70;25.70;;;;;;;-1.29;54.45;101164.34;106214;1285;22978;-77
2023/02/10 16:19:25;;;;;;;66.20;24.00;;;;;;;-1.40;56.08;101160.86;106348;1295;22667;-78
2023/02/10 16:21:57;;;;;;;55.80;21.70;;;;;;;-1.49;56.53;101168.86;105825;1297;22586;-77
2023/02/10 16:24:28;;;;;;;64.60;23.60;;;;;;;-1.59;57.01;101168.81;105977;1288;22611;-76
2023/02/10 16:26:57;;;;;;;60.70;21.80;;;;;;;-1.66;57.43;101172.13;106848;1296;24218;-77
2023/02/10 16:29:28;;;;;;;56.70;22.10;;;;;;;-1.74;57.67;101168.58;106106;1296;25310;-77
2023/02/10 16:31:57;;;;;;;115.50;35.80;;;;;;;-1.83;57.94;101173.03;106576;1296;22503;-78
2023/02/10 16:34:29;;;;;;;135.10;41.90;;;;;;;-1.92;58.21;101168.45;106968;1295;22568;-77
2023/02/10 16:36:58;;;;;;;233.40;60.60;;;;;;;-2.00;58.68;101162.21;106884;1295;22592;-77
2023/02/10 16:39:26;;;;;;;173.50;48.60;;;;;;;-2.07;58.64;101173.16;106093;1295;22666;-79
2023/02/10 16:41:56;;;;;;;169.90;47.30;;;;;;;-2.17;55.32;101184.33;105897;1297;22558;-77
2023/02/10 16:44:24;;;;;;;155.60;47.00;;;;;;;-2.27;55.99;101193.21;106036;1295;25437;-77
2023/02/10 16:46:53;;;;;;;130.10;38.30;;;;;;;-2.33;58.20;101189.24;106614;1295;23978;-78
2023/02/10 16:49:24;;;;;;;105.20;31.90;;;;;;;-2.41;59.04;101185.10;107627;1295;27616;-77
2023/02/10 16:51:54;;;;;;;78.00;25.50;;;;;;;-2.47;58.75;101186.73;107499;1296;22591;-76
2023/02/10 16:54:23;;;;;;;86.20;26.40;;;;;;;-2.54;58.91;101184.79;107575;1295;23906;-78
2023/02/10 16:56:52;;;;;;;83.40;25.20;;;;;;;-2.60;59.18;101186.30;106823;1297;22551;-77
2023/02/10 16:59:24;;;;;;;91.10;29.10;;;;;;;-2.65;58.47;101188.38;106166;1285;22634;-77
2023/02/10 17:01:52;;;;;;;66.50;25.80;;;;;;;-2.70;58.14;101189.94;106081;1296;22559;-78
2023/02/10 17:04:23;;;;;;;76.20;26.60;;;;;;;-2.73;59.91;101194.46;106034;1297;22580;-77
2023/02/10 17:06:52;;;;;;;83.90;28.80;;;;;;;-2.77;59.81;101195.79;106133;1296;22755;-77
2023/02/10 17:09:25;;;;;;;87.50;28.20;;;;;;;-2.81;60.09;101187.02;106063;1296;22666;-77
2023/02/10 17:11:54;;;;;;;86.80;27.70;;;;;;;-2.86;60.35;101186.73;106012;1296;22860;-77
2023/02/10 17:14:26;;;;;;;81.70;26.70;;;;;;;-2.90;60.36;101190.52;106149;1283;25306;-78
2023/02/10 17:16:55;;;;;;;85.10;27.30;;;;;;;-2.95;60.80;101190.73;106120;1296;25370;-78
2023/02/10 17:19:32;;;;;;;60.80;24.40;;;;;;;-3.01;61.12;101190.73;106056;1296;22711;-78
2023/02/10 17:22:02;;;;;;;58.40;20.70;;;;;;;-3.06;61.04;101186.37;106365;1297;22571;-78
2023/02/10 17:24:30;;;;;;;68.40;21.20;;;;;;;-3.11;60.77;101186.88;105948;1296;22657;-78
2023/02/10 17:26:59;;;;;;;57.30;20.80;;;;;;;-3.15;60.96;101186.91;106094;1296;25265;-78
2023/02/10 17:29:27;;;;;;;66.20;23.70;;;;;;;-3.21;61.23;101189.13;106101;1296;22572;-79
2023/02/10 17:31:56;;;;;;;58.60;20.00;;;;;;;-3.25;61.27;101185.79;105917;1292;22661;-77
2023/02/10 17:34:24;;;;;;;67.10;21.50;;;;;;;-3.28;62.17;101186.45;106070;1297;22587;-77
2023/02/10 17:36:53;;;;;;;62.10;20.70;;;;;;;-3.32;62.05;101189.58;106039;1296;23805;-78
2023/02/10 17:41:54;;;;;;;76.50;25.40;;;;;;;-3.39;62.11;101192.40;105965;1296;22586;-78
2023/02/10 17:44:23;;;;;;;85.90;25.00;;;;;;;-3.43;62.60;101190.11;105983;1297;24025;-77
2023/02/10 17:46:58;;;;;;;79.40;24.60;;;;;;;-3.47;62.92;101193.23;106067;1289;22738;-78
2023/02/10 17:49:29;;;;;;;62.90;20.90;;;;;;;-3.51;61.40;101195.80;106062;1296;25484;-80
2023/02/10 17:51:59;;;;;;;66.00;21.80;;;;;;;-3.56;62.76;101198.38;105899;1296;22721;-78
2023/02/10 17:54:28;;;;;;;58.40;21.30;;;;;;;-3.64;59.77;101198.70;106071;1289;23584;-82
2023/02/10 17:56:58;;;;;;;64.80;21.10;;;;;;;-3.72;62.06;101192.59;106001;1296;22557;-77
2023/02/10 17:59:27;;;;;;;65.70;23.70;;;;;;;-3.79;63.73;101186.07;106048;1296;22665;-77
2023/02/10 18:01:59;;;;;;;64.80;23.20;;;;;;;-3.85;60.73;101187.89;105818;1296;24260;-79
2023/02/10 18:04:28;;;;;;;64.00;23.60;;;;;;;-3.90;60.04;101196.65;106108;1297;25251;-78
2023/02/10 18:06:56;;;;;;;73.70;25.10;;;;;;;-3.95;63.48;101192.94;105995;1296;22511;-77
2023/02/10 18:09:27;;;;;;;75.00;25.40;;;;;;;-3.99;63.42;101195.39;106050;1296;24373;-78
2023/02/10 18:11:58;;;;;;;67.70;25.70;;;;;;;-4.04;64.17;101191.88;106088;1297;24372;-77
2023/02/10 18:14:27;;;;;;;74.80;26.40;;;;;;;-4.06;64.73;101197.98;106193;1294;25947;-78
2023/02/10 18:16:55;;;;;;;70.50;27.10;;;;;;;-4.10;65.22;101200.09;105731;1296;26040;-78
2023/02/10 18:19:25;;;;;;;82.50;28.60;;;;;;;-4.13;65.71;101206.44;106318;1296;23763;-80
2023/02/10 18:21:54;;;;;;;93.90;30.60;;;;;;;-4.18;65.18;101211.07;105875;1288;22565;-78
2023/02/10 18:24:26;;;;;;;94.30;32.70;;;;;;;-4.21;65.07;101210.19;105981;1286;22677;-78
2023/02/10 18:26:57;;;;;;;119.60;36.40;;;;;;;-4.24;65.54;101208.44;106071;1296;22602;-78
2023/02/10 18:29:26;;;;;;;126.00;42.80;;;;;;;-4.28;61.28;101209.72;106061;1296;22663;-78
2023/02/10 18:31:54;;;;;;;110.50;37.80;;;;;;;-4.30;65.03;101209.36;106038;1296;22667;-78
2023/02/10 18:34:23;;;;;;;109.60;36.00;;;;;;;-4.33;65.30;101211.39;106033;1289;22868;-77
2023/02/10 18:36:53;;;;;;;121.20;41.50;;;;;;;-4.37;64.68;101214.35;105910;1296;25436;-78
2023/02/10 18:39:21;;;;;;;107.90;37.70;;;;;;;-4.40;66.39;101210.59;105921;1296;25310;-78
2023/02/10 18:41:50;;;;;;;90.60;33.30;;;;;;;-4.42;67.21;101212.45;105999;1295;22660;-77
2023/02/10 18:44:18;;;;;;;94.90;32.90;;;;;;;-4.46;67.12;101217.11;106063;1296;25443;-77
2023/02/10 18:46:47;;;;;;;102.70;37.40;;;;;;;-4.49;67.24;101213.48;106000;1282;22645;-77
2023/02/10 18:49:15;;;;;;;113.60;39.90;;;;;;;-4.52;67.73;101209.54;106041;1296;22855;-78
2023/02/10 18:51:43;;;;;;;117.60;38.70;;;;;;;-4.56;68.49;101211.86;105906;1296;22643;-78
2023/02/10 18:54:12;;;;;;;102.30;37.50;;;;;;;-4.59;68.49;101213.65;106053;1296;25417;-79
2023/02/10 18:56:41;;;;;;;110.10;37.40;;;;;;;-4.65;67.75;101213.27;106010;1294;24882;-77
2023/02/10 18:59:09;;;;;;;101.80;35.40;;;;;;;-4.69;67.61;101226.03;106038;1296;22593;-77
2023/02/10 19:01:38;;;;;;;95.40;34.90;;;;;;;-4.74;68.57;101218.05;105991;1295;22564;-78
2023/02/10 19:04:06;;;;;;;93.60;33.70;;;;;;;-4.79;68.05;101219.25;105904;1296;23544;-77
2023/02/10 19:06:34;;;;;;;93.80;33.30;;;;;;;-4.83;67.54;101226.70;106025;1296;24212;-78
2023/02/10 19:09:03;;;;;;;83.50;30.20;;;;;;;-4.86;68.30;101223.77;105891;1297;22562;-78
2023/02/10 19:11:31;;;;;;;54.70;23.90;;;;;;;-4.90;67.30;101219.92;106339;1295;22831;-78
2023/02/10 19:14:00;;;;;;;77.60;29.30;;;;;;;-4.94;68.35;101224.39;106994;1297;22556;-79
2023/02/10 19:16:28;;;;;;;85.60;30.50;;;;;;;-4.97;69.07;101218.61;107445;1296;22583;-78
2023/02/10 19:19:01;;;;;;;78.30;29.00;;;;;;;-5.00;68.79;101211.61;107605;1296;22517;-79
2023/02/10 19:21:30;;;;;;;75.90;29.30;;;;;;;-5.05;68.16;101207.77;107239;1296;25547;-77
2023/02/10 19:23:59;;;;;;;76.80;27.70;;;;;;;-5.09;69.06;101212.04;106969;1295;23828;-80
2023/02/10 19:26:27;;;;;;;71.80;29.30;;;;;;;-5.12;69.77;101216.37;105977;1296;22562;-79
2023/02/10 19:28:58;;;;;;;79.00;29.10;;;;;;;-5.15;69.19;101219.85;105895;1296;22572;-78
2023/02/10 19:31:26;;;;;;;55.20;22.20;;;;;;;-5.18;70.09;101222.52;105874;1295;25533;-78
2023/02/10 19:33:57;;;;;;;80.40;30.20;;;;;;;-5.22;69.75;101216.70;105872;1296;22565;-78
2023/02/10 19:36:26;;;;;;;81.90;29.20;;;;;;;-5.22;68.32;101219.88;105924;1296;23395;-78
2023/02/10 19:38:54;;;;;;;86.40;30.70;;;;;;;-5.24;68.50;101218.74;105914;1287;22503;-79
2023/02/10 19:41:25;;;;;;;89.70;30.90;;;;;;;-5.24;69.37;101220.11;105832;1296;23329;-76
2023/02/10 19:43:56;;;;;;;73.20;30.90;;;;;;;-5.22;69.62;101223.95;105926;1296;24247;-78
2023/02/10 19:46:24;;;;;;;68.90;28.00;;;;;;;-5.19;69.84;101221.11;107383;1285;22601;-77
2023/02/10 19:48:53;;;;;;;78.50;28.60;;;;;;;-5.14;70.13;101225.52;107367;1296;22600;-78
2023/02/10 19:51:24;;;;;;;89.50;30.30;;;;;;;-5.10;69.33;101228.99;105847;1296;22692;-78
2023/02/10 19:53:52;;;;;;;68.70;28.60;;;;;;;-5.08;68.05;101239.45;105862;1296;23867;-77
2023/02/10 19:56:21;;;;;;;89.80;30.10;;;;;;;-5.08;68.66;101239.34;106086;1295;25412;-77
2023/02/10 19:58:53;;;;;;;80.20;32.10;;;;;;;-5.04;69.58;101239.76;107401;1295;22611;-77
2023/02/10 20:01:24;;;;;;;85.70;30.10;;;;;;;-5.00;69.83;101246.84;107285;1295;22572;-78
2023/02/10 20:03:55;;;;;;;87.50;31.60;;;;;;;-4.93;70.12;101251.83;107113;1296;22751;-78
2023/02/10 20:06:27;;;;;;;86.30;31.50;;;;;;;-4.89;70.61;101248.96;107097;1295;25265;-78
2023/02/10 20:08:56;;;;;;;106.50;32.90;;;;;;;-4.85;70.94;101247.67;106296;1295;22571;-77
2023/02/10 20:11:24;;;;;;;78.00;28.10;;;;;;;-4.83;70.32;101253.27;105945;1295;24241;-77
2023/02/10 20:13:53;;;;;;;90.40;30.90;;;;;;;-4.79;70.67;101249.67;105802;1295;22785;-77
2023/02/10 20:16:21;;;;;;;76.70;28.30;;;;;;;-4.76;70.38;101254.30;105992;1295;25280;-77
2023/02/10 20:18:50;;;;;;;85.60;28.30;;;;;;;-4.76;69.01;101255.09;105818;1295;22582;-77
2023/02/10 20:21:18;;;;;;;68.50;26.40;;;;;;;-4.82;67.60;101254.89;105976;1275;23920;-77
2023/02/10 20:23:46;;;;;;;64.10;26.50;;;;;;;-4.88;68.13;101261.69;105832;1296;25281;-77
2023/02/10 20:26:15;;;;;;;69.30;26.00;;;;;;;-4.91;68.77;101263.02;106192;1296;22782;-78
2023/02/10 20:28:44;;;;;;;71.20;25.90;;;;;;;-4.92;69.16;101261.73;106384;1295;22644;-77
2023/02/10 20:31:15;;;;;;;86.30;28.90;;;;;;;-4.94;69.48;101267.30;106225;1296;24225;-77
2023/02/10 20:33:45;;;;;;;85.30;28.30;;;;;;;-4.98;68.56;101264.55;106359;1296;25466;-77
2023/02/10 20:36:16;;;;;;;68.60;25.40;;;;;;;-5.02;68.34;101262.23;106381;1296;22576;-76
2023/02/10 20:38:46;;;;;;;53.50;23.60;;;;;;;-5.05;68.62;101266.79;106743;1296;22619;-80
2023/02/10 20:41:17;;;;;;;45.80;21.30;;;;;;;-5.07;69.16;101269.66;106174;1296;22589;-77
2023/02/10 20:43:48;;;;;;;47.80;20.70;;;;;;;-5.10;68.81;101268.43;106040;1296;22592;-77
2023/02/10 20:46:17;;;;;;;48.20;21.40;;;;;;;-5.14;69.46;101262.52;106073;1296;22771;-77
2023/02/10 20:48:47;;;;;;;50.50;20.00;;;;;;;-5.20;69.37;101262.95;106022;1295;23875;-77
2023/02/10 20:51:16;;;;;;;56.70;21.70;;;;;;;-5.24;69.31;101262.21;106023;1295;24260;-77
2023/02/10 20:53:45;;;;;;;50.20;19.40;;;;;;;-5.23;69.07;101263.45;106176;1295;22795;-79
2023/02/10 20:56:16;;;;;;;57.40;21.40;;;;;;;-5.25;69.89;101262.10;105792;1295;22563;-77
2023/02/10 20:58:44;;;;;;;47.20;19.60;;;;;;;-5.29;69.62;101262.16;105981;1289;22582;-76
2023/02/10 21:01:15;;;;;;;62.90;21.30;;;;;;;-5.29;69.72;101261.46;106009;1296;22549;-78
2023/02/10 21:03:44;;;;;;;54.60;19.80;;;;;;;-5.30;69.62;101262.04;106044;1295;22567;-77
2023/02/10 21:06:19;;;;;;;42.60;20.40;;;;;;;-5.30;70.00;101258.85;106006;1296;22599;-76
2023/02/10 21:08:48;;;;;;;50.40;20.40;;;;;;;-5.34;70.46;101255.53;105855;1295;22832;-76
2023/02/10 21:11:19;;;;;;;53.70;20.60;;;;;;;-5.41;69.65;101253.18;105945;1279;24244;-76
2023/02/10 21:13:48;;;;;;;54.60;24.00;;;;;;;-5.49;70.12;101260.16;106216;1285;22594;-76
2023/02/10 21:16:18;;;;;;;65.90;24.10;;;;;;;-5.59;71.09;101259.11;105971;1288;22592;-78
2023/02/10 21:18:47;;;;;;;64.10;24.10;;;;;;;-5.65;70.11;101262.67;105784;1290;22577;-76
2023/02/10 21:21:17;;;;;;;51.10;22.10;;;;;;;-5.73;70.50;101262.39;105948;1297;22549;-77
2023/02/10 21:23:46;;;;;;;52.00;20.20;;;;;;;-5.77;70.87;101255.56;106058;1296;24959;-78
2023/02/10 21:26:14;;;;;;;51.00;20.30;;;;;;;-5.80;70.83;101252.14;106054;1296;22679;-78
2023/02/10 21:28:43;;;;;;;49.80;20.30;;;;;;;-5.85;70.00;101256.97;106008;1296;22739;-77
2023/02/10 21:31:16;;;;;;;49.00;19.20;;;;;;;-5.88;70.34;101258.63;105977;1296;25591;-77
2023/02/10 21:33:45;;;;;;;53.00;21.30;;;;;;;-5.88;70.04;101263.34;105810;1297;23196;-77
2023/02/10 21:36:20;;;;;;;55.00;18.30;;;;;;;-5.92;71.07;101259.32;105954;1296;22556;-77
2023/02/10 21:38:49;;;;;;;47.80;20.40;;;;;;;-5.98;70.27;101262.15;105847;1289;22563;-79
2023/02/10 21:44:15;;;;;;;37.90;16.40;;;;;;;-6.14;71.92;101260.77;105971;1296;24031;-77
2023/02/10 21:46:48;;;;;;;53.50;19.70;;;;;;;-6.20;70.68;101262.84;106140;1296;25447;-77
2023/02/10 21:49:17;;;;;;;;;;;;;;;-6.24;69.46;101260.49;106119;1295;22552;-77
2023/02/10 21:51:46;;;;;;;46.40;16.10;;;;;;;-6.30;70.27;101262.88;105622;1296;23063;-79
2023/02/10 21:54:15;;;;;;;43.60;18.90;;;;;;;-6.35;70.99;101267.55;106224;1296;25549;-76
2023/02/10 21:56:44;;;;;;;48.40;22.40;;;;;;;-6.36;71.35;101268.30;105862;1297;23391;-76
2023/02/10 21:59:13;;;;;;;47.70;19.80;;;;;;;-6.35;71.59;101274.33;105923;1296;24234;-77
2023/02/10 22:01:42;;;;;;;40.30;16.90;;;;;;;-6.33;70.33;101267.25;105981;1296;23018;-76
2023/02/10 22:04:10;;;;;;;49.20;19.10;;;;;;;-6.36;70.61;101262.96;106033;1297;22553;-77
2023/02/10 22:06:41;;;;;;;52.00;22.00;;;;;;;-6.39;70.04;101258.86;106026;1292;22523;-77
2023/02/10 22:09:15;;;;;;;59.10;21.80;;;;;;;-6.41;70.66;101259.73;106111;1296;24421;-78
2023/02/10 22:11:43;;;;;;;;;;;;;;;-6.39;71.46;101255.84;105905;1288;22589;-76
2023/02/10 22:14:13;;;;;;;56.10;21.70;;;;;;;-6.35;71.61;101258.58;106109;1296;23761;-76
2023/02/10 22:16:41;;;;;;;52.30;22.10;;;;;;;-6.36;71.40;101259.59;106152;1296;22556;-77
2023/02/10 22:19:10;;;;;;;57.40;23.90;;;;;;;-6.42;70.04;101264.71;106084;1296;22758;-75
2023/02/10 22:21:40;;;;;;;71.00;24.00;;;;;;;-6.45;71.45;101259.05;106070;1296;24272;-76
2023/02/10 22:24:10;;;;;;;56.30;23.90;;;;;;;-6.46;71.66;101254.91;106104;1289;22598;-77
2023/02/10 22:26:38;;;;;;;62.90;21.10;;;;;;;-6.45;72.33;101250.61;106070;1297;22566;-76